sensor_id;sensor_type;location;lat;lon;timestamp;temperature;humidity
10316;DHT22;5203;48.976;8.306;2023-11-19T00:01:19;9.20;99.90
10316;DHT22;5203;48.976;8.306;2023-11-19T00:03:44;9.30;99.90
10316;DHT22;5203;48.976;8.306;2023-11-19T00:06:10;9.20;99.90
10316;DHT22;5203;48.976;8.306;2023-11-19T00:08:36;9.30;99.90
10316;DHT22;5203;48.976;8.306;2023-11-19T00:11:02;9.30;99.90
10316;DHT22;5203;48.976;8.306;2023-11-19T00:13:28;9.30;99.90
10316;DHT22;5203;48.976;8.306;2023-11-19T00:15:54;9.40;99.90
10316;DHT22;5203;48.976;8.306;2023-11-19T00:18:19;9.40;99.90
10316;DHT22;5203;48.976;8.306;2023-11-19T00:20:46;9.40;99.90
10316;DHT22;5203;48.976;8.306;2023-11-19T00:23:11;9.50;99.90
10316;DHT22;5203;48.976;8.306;2023-11-19T00:25:40;9.50;99.90
10316;DHT22;5203;48.976;8.306;2023-11-19T00:28:05;9.60;99.90
10316;DHT22;5203;48.976;8.306;2023-11-19T00:30:31;9.60;99.90
10316;DHT22;5203;48.976;8.306;2023-11-19T00:32:57;9.60;99.90
10316;DHT22;5203;48.976;8.306;2023-11-19T00:35:22;9.60;99.90
10316;DHT22;5203;48.976;8.306;2023-11-19T00:37:51;9.60;99.90
10316;DHT22;5203;48.976;8.306;2023-11-19T00:40:19;9.60;99.90
10316;DHT22;5203;48.976;8.306;2023-11-19T00:42:47;9.70;99.90
10316;DHT22;5203;48.976;8.306;2023-11-19T00:45:13;9.70;99.90
10316;DHT22;5203;48.976;8.306;2023-11-19T00:47:39;9.80;99.90
10316;DHT22;5203;48.976;8.306;2023-11-19T00:50:05;9.70;99.90
10316;DHT22;5203;48.976;8.306;2023-11-19T00:52:31;9.80;99.90
10316;DHT22;5203;48.976;8.306;2023-11-19T00:54:57;9.80;99.90
10316;DHT22;5203;48.976;8.306;2023-11-19T00:57:23;9.80;99.90
10316;DHT22;5203;48.976;8.306;2023-11-19T00:59:49;9.80;99.90
10316;DHT22;5203;48.976;8.306;2023-11-19T01:02:15;9.80;99.90
10316;DHT22;5203;48.976;8.306;2023-11-19T01:04:41;9.80;99.90
10316;DHT22;5203;48.976;8.306;2023-11-19T01:07:07;9.90;99.90
10316;DHT22;5203;48.976;8.306;2023-11-19T01:09:41;9.90;99.90
10316;DHT22;5203;48.976;8.306;2023-11-19T01:12:07;9.90;99.90
10316;DHT22;5203;48.976;8.306;2023-11-19T01:14:33;9.90;99.90
10316;DHT22;5203;48.976;8.306;2023-11-19T01:16:58;9.90;99.90
10316;DHT22;5203;48.976;8.306;2023-11-19T01:19:24;9.90;99.90
10316;DHT22;5203;48.976;8.306;2023-11-19T01:21:50;10.00;99.90
10316;DHT22;5203;48.976;8.306;2023-11-19T01:24:16;10.00;99.90
10316;DHT22;5203;48.976;8.306;2023-11-19T01:26:43;10.00;99.90
10316;DHT22;5203;48.976;8.306;2023-11-19T01:29:11;10.00;99.90
10316;DHT22;5203;48.976;8.306;2023-11-19T01:31:40;10.00;99.90
10316;DHT22;5203;48.976;8.306;2023-11-19T01:34:05;10.00;99.90
10316;DHT22;5203;48.976;8.306;2023-11-19T01:36:31;10.10;99.90
10316;DHT22;5203;48.976;8.306;2023-11-19T01:38:57;10.00;99.90
10316;DHT22;5203;48.976;8.306;2023-11-19T01:41:22;10.10;99.90
10316;DHT22;5203;48.976;8.306;2023-11-19T01:43:48;10.00;99.90
10316;DHT22;5203;48.976;8.306;2023-11-19T01:46:14;10.10;99.90
10316;DHT22;5203;48.976;8.306;2023-11-19T01:48:43;10.10;99.90
10316;DHT22;5203;48.976;8.306;2023-11-19T01:51:10;10.10;99.90
10316;DHT22;5203;48.976;8.306;2023-11-19T01:53:37;10.10;99.90
10316;DHT22;5203;48.976;8.306;2023-11-19T01:56:13;10.10;99.90
10316;DHT22;5203;48.976;8.306;2023-11-19T01:58:40;10.10;99.90
10316;DHT22;5203;48.976;8.306;2023-11-19T02:01:07;10.10;99.90
10316;DHT22;5203;48.976;8.306;2023-11-19T02:03:33;10.10;99.90
10316;DHT22;5203;48.976;8.306;2023-11-19T02:06:03;10.10;99.90
10316;DHT22;5203;48.976;8.306;2023-11-19T02:08:29;10.20;99.90
10316;DHT22;5203;48.976;8.306;2023-11-19T02:10:56;10.10;99.90
10316;DHT22;5203;48.976;8.306;2023-11-19T02:13:22;10.20;99.90
10316;DHT22;5203;48.976;8.306;2023-11-19T02:15:48;10.20;99.90
10316;DHT22;5203;48.976;8.306;2023-11-19T02:18:20;10.10;99.90
10316;DHT22;5203;48.976;8.306;2023-11-19T02:20:48;10.20;99.90
10316;DHT22;5203;48.976;8.306;2023-11-19T02:23:13;10.20;99.90
10316;DHT22;5203;48.976;8.306;2023-11-19T02:25:40;10.20;99.90
10316;DHT22;5203;48.976;8.306;2023-11-19T02:28:06;10.20;99.90
10316;DHT22;5203;48.976;8.306;2023-11-19T02:30:32;10.20;99.90
10316;DHT22;5203;48.976;8.306;2023-11-19T02:32:59;10.30;99.90
10316;DHT22;5203;48.976;8.306;2023-11-19T02:35:31;10.20;99.90
10316;DHT22;5203;48.976;8.306;2023-11-19T02:37:58;10.30;99.90
10316;DHT22;5203;48.976;8.306;2023-11-19T02:40:29;10.30;99.90
10316;DHT22;5203;48.976;8.306;2023-11-19T02:42:55;10.30;99.90
10316;DHT22;5203;48.976;8.306;2023-11-19T02:45:25;10.30;99.90
10316;DHT22;5203;48.976;8.306;2023-11-19T02:47:52;10.30;99.90
10316;DHT22;5203;48.976;8.306;2023-11-19T02:50:20;10.30;99.90
10316;DHT22;5203;48.976;8.306;2023-11-19T02:52:55;10.30;99.90
10316;DHT22;5203;48.976;8.306;2023-11-19T02:55:24;10.30;99.90
10316;DHT22;5203;48.976;8.306;2023-11-19T02:57:51;10.30;99.90
10316;DHT22;5203;48.976;8.306;2023-11-19T03:00:19;10.30;99.90
10316;DHT22;5203;48.976;8.306;2023-11-19T03:02:49;10.30;99.90
10316;DHT22;5203;48.976;8.306;2023-11-19T03:05:24;10.40;99.90
10316;DHT22;5203;48.976;8.306;2023-11-19T03:07:53;10.30;99.90
10316;DHT22;5203;48.976;8.306;2023-11-19T03:10:19;10.30;99.90
10316;DHT22;5203;48.976;8.306;2023-11-19T03:12:45;10.40;99.90
10316;DHT22;5203;48.976;8.306;2023-11-19T03:15:13;10.40;99.90
10316;DHT22;5203;48.976;8.306;2023-11-19T03:17:40;10.40;99.90
10316;DHT22;5203;48.976;8.306;2023-11-19T03:20:08;10.40;99.90
10316;DHT22;5203;48.976;8.306;2023-11-19T03:22:43;10.40;99.90
10316;DHT22;5203;48.976;8.306;2023-11-19T03:25:12;10.40;99.90
10316;DHT22;5203;48.976;8.306;2023-11-19T03:27:39;10.40;99.90
10316;DHT22;5203;48.976;8.306;2023-11-19T03:30:10;10.40;99.90
10316;DHT22;5203;48.976;8.306;2023-11-19T03:32:36;10.40;99.90
10316;DHT22;5203;48.976;8.306;2023-11-19T03:35:03;10.40;99.90
10316;DHT22;5203;48.976;8.306;2023-11-19T03:37:36;10.40;99.90
10316;DHT22;5203;48.976;8.306;2023-11-19T03:40:02;10.50;99.90
10316;DHT22;5203;48.976;8.306;2023-11-19T03:42:28;10.50;99.90
10316;DHT22;5203;48.976;8.306;2023-11-19T03:44:58;10.50;99.90
10316;DHT22;5203;48.976;8.306;2023-11-19T03:47:24;10.50;99.90
10316;DHT22;5203;48.976;8.306;2023-11-19T03:49:52;10.50;99.90
10316;DHT22;5203;48.976;8.306;2023-11-19T03:52:18;10.60;99.90
10316;DHT22;5203;48.976;8.306;2023-11-19T03:54:45;10.60;99.90
10316;DHT22;5203;48.976;8.306;2023-11-19T03:57:13;10.60;99.90
10316;DHT22;5203;48.976;8.306;2023-11-19T03:59:41;10.60;99.90
10316;DHT22;5203;48.976;8.306;2023-11-19T04:02:09;10.50;99.90
10316;DHT22;5203;48.976;8.306;2023-11-19T04:04:35;10.60;99.90
10316;DHT22;5203;48.976;8.306;2023-11-19T04:07:03;10.60;99.90
10316;DHT22;5203;48.976;8.306;2023-11-19T04:09:29;10.60;99.90
10316;DHT22;5203;48.976;8.306;2023-11-19T04:11:56;10.60;99.90
10316;DHT22;5203;48.976;8.306;2023-11-19T04:14:24;10.60;99.90
10316;DHT22;5203;48.976;8.306;2023-11-19T04:16:56;10.60;99.90
10316;DHT22;5203;48.976;8.306;2023-11-19T04:19:22;10.60;99.90
10316;DHT22;5203;48.976;8.306;2023-11-19T04:21:55;10.70;99.90
10316;DHT22;5203;48.976;8.306;2023-11-19T04:24:20;10.70;99.90
10316;DHT22;5203;48.976;8.306;2023-11-19T04:26:52;10.70;99.90
10316;DHT22;5203;48.976;8.306;2023-11-19T04:29:18;10.70;99.90
10316;DHT22;5203;48.976;8.306;2023-11-19T04:31:54;10.70;99.90
10316;DHT22;5203;48.976;8.306;2023-11-19T04:34:23;10.70;99.90
10316;DHT22;5203;48.976;8.306;2023-11-19T04:36:51;10.70;99.90
10316;DHT22;5203;48.976;8.306;2023-11-19T04:39:20;10.70;99.90
10316;DHT22;5203;48.976;8.306;2023-11-19T04:41:55;10.70;99.90
10316;DHT22;5203;48.976;8.306;2023-11-19T04:44:21;10.80;99.90
10316;DHT22;5203;48.976;8.306;2023-11-19T04:46:47;10.80;99.90
10316;DHT22;5203;48.976;8.306;2023-11-19T04:49:16;10.90;99.90
10316;DHT22;5203;48.976;8.306;2023-11-19T04:51:43;10.90;99.90
10316;DHT22;5203;48.976;8.306;2023-11-19T04:54:09;10.90;99.90
10316;DHT22;5203;48.976;8.306;2023-11-19T04:56:36;10.90;99.90
10316;DHT22;5203;48.976;8.306;2023-11-19T04:59:05;11.00;99.90
10316;DHT22;5203;48.976;8.306;2023-11-19T05:01:34;11.00;99.90
10316;DHT22;5203;48.976;8.306;2023-11-19T05:04:08;11.10;99.90
10316;DHT22;5203;48.976;8.306;2023-11-19T05:06:34;11.10;99.90
10316;DHT22;5203;48.976;8.306;2023-11-19T05:09:01;11.10;99.90
10316;DHT22;5203;48.976;8.306;2023-11-19T05:11:27;11.20;99.90
10316;DHT22;5203;48.976;8.306;2023-11-19T05:13:54;11.30;99.90
10316;DHT22;5203;48.976;8.306;2023-11-19T05:16:19;11.30;99.90
10316;DHT22;5203;48.976;8.306;2023-11-19T05:18:46;11.30;99.90
10316;DHT22;5203;48.976;8.306;2023-11-19T05:21:14;11.30;99.90
10316;DHT22;5203;48.976;8.306;2023-11-19T05:23:40;11.40;99.90
10316;DHT22;5203;48.976;8.306;2023-11-19T05:26:26;11.40;99.90
10316;DHT22;5203;48.976;8.306;2023-11-19T05:28:51;11.40;99.90
10316;DHT22;5203;48.976;8.306;2023-11-19T05:31:18;11.40;99.90
10316;DHT22;5203;48.976;8.306;2023-11-19T05:33:44;11.40;99.90
10316;DHT22;5203;48.976;8.306;2023-11-19T05:36:11;11.40;99.90
10316;DHT22;5203;48.976;8.306;2023-11-19T05:38:41;11.50;99.90
10316;DHT22;5203;48.976;8.306;2023-11-19T05:41:07;11.50;99.90
10316;DHT22;5203;48.976;8.306;2023-11-19T05:43:33;11.50;99.90
10316;DHT22;5203;48.976;8.306;2023-11-19T05:45:58;11.50;99.90
10316;DHT22;5203;48.976;8.306;2023-11-19T05:48:26;11.60;99.90
10316;DHT22;5203;48.976;8.306;2023-11-19T05:50:52;11.60;99.90
10316;DHT22;5203;48.976;8.306;2023-11-19T05:53:18;11.50;99.90
10316;DHT22;5203;48.976;8.306;2023-11-19T05:55:44;11.50;99.90
10316;DHT22;5203;48.976;8.306;2023-11-19T05:58:14;11.60;99.90
10316;DHT22;5203;48.976;8.306;2023-11-19T06:00:40;11.60;99.90
10316;DHT22;5203;48.976;8.306;2023-11-19T06:03:08;11.60;99.90
10316;DHT22;5203;48.976;8.306;2023-11-19T06:05:34;11.70;99.90
10316;DHT22;5203;48.976;8.306;2023-11-19T06:07:59;11.70;99.90
10316;DHT22;5203;48.976;8.306;2023-11-19T06:10:28;11.70;99.90
10316;DHT22;5203;48.976;8.306;2023-11-19T06:13:00;11.70;99.90
10316;DHT22;5203;48.976;8.306;2023-11-19T06:15:26;11.70;99.90
10316;DHT22;5203;48.976;8.306;2023-11-19T06:17:54;11.70;99.90
10316;DHT22;5203;48.976;8.306;2023-11-19T06:20:20;11.80;99.90
10316;DHT22;5203;48.976;8.306;2023-11-19T06:22:46;11.70;99.90
10316;DHT22;5203;48.976;8.306;2023-11-19T06:25:15;11.70;99.90
10316;DHT22;5203;48.976;8.306;2023-11-19T06:27:42;11.70;99.90
10316;DHT22;5203;48.976;8.306;2023-11-19T06:30:08;11.60;99.90
10316;DHT22;5203;48.976;8.306;2023-11-19T06:32:40;11.60;99.90
10316;DHT22;5203;48.976;8.306;2023-11-19T06:35:06;11.60;99.90
10316;DHT22;5203;48.976;8.306;2023-11-19T06:37:32;11.60;99.90
10316;DHT22;5203;48.976;8.306;2023-11-19T06:39:58;11.60;99.90
10316;DHT22;5203;48.976;8.306;2023-11-19T06:42:24;11.70;99.90
10316;DHT22;5203;48.976;8.306;2023-11-19T06:44:50;11.70;99.90
10316;DHT22;5203;48.976;8.306;2023-11-19T06:47:17;11.70;99.90
10316;DHT22;5203;48.976;8.306;2023-11-19T06:49:45;11.70;99.90
10316;DHT22;5203;48.976;8.306;2023-11-19T06:52:11;11.80;99.90
10316;DHT22;5203;48.976;8.306;2023-11-19T06:54:39;11.70;99.90
10316;DHT22;5203;48.976;8.306;2023-11-19T06:57:05;11.80;99.90
10316;DHT22;5203;48.976;8.306;2023-11-19T06:59:31;11.90;99.90
10316;DHT22;5203;48.976;8.306;2023-11-19T07:01:56;11.90;99.90
10316;DHT22;5203;48.976;8.306;2023-11-19T07:04:22;11.90;99.90
10316;DHT22;5203;48.976;8.306;2023-11-19T07:06:48;12.00;99.90
10316;DHT22;5203;48.976;8.306;2023-11-19T07:09:14;12.00;99.90
10316;DHT22;5203;48.976;8.306;2023-11-19T07:11:40;12.00;99.90
10316;DHT22;5203;48.976;8.306;2023-11-19T07:14:10;12.00;99.90
10316;DHT22;5203;48.976;8.306;2023-11-19T07:20:08;11.90;99.90
10316;DHT22;5203;48.976;8.306;2023-11-19T07:22:34;11.90;99.90
10316;DHT22;5203;48.976;8.306;2023-11-19T07:24:59;11.90;99.90
10316;DHT22;5203;48.976;8.306;2023-11-19T07:27:25;11.90;99.90
10316;DHT22;5203;48.976;8.306;2023-11-19T07:29:51;11.90;99.90
10316;DHT22;5203;48.976;8.306;2023-11-19T07:32:17;11.90;99.90
10316;DHT22;5203;48.976;8.306;2023-11-19T07:34:43;12.10;99.90
10316;DHT22;5203;48.976;8.306;2023-11-19T07:37:09;12.00;99.90
10316;DHT22;5203;48.976;8.306;2023-11-19T07:39:35;12.10;99.90
10316;DHT22;5203;48.976;8.306;2023-11-19T07:42:03;12.10;99.90
10316;DHT22;5203;48.976;8.306;2023-11-19T07:44:29;12.10;99.90
10316;DHT22;5203;48.976;8.306;2023-11-19T07:46:55;12.20;99.90
10316;DHT22;5203;48.976;8.306;2023-11-19T07:49:20;12.20;99.90
10316;DHT22;5203;48.976;8.306;2023-11-19T07:51:49;12.30;99.90
10316;DHT22;5203;48.976;8.306;2023-11-19T07:54:17;12.30;99.90
10316;DHT22;5203;48.976;8.306;2023-11-19T07:56:42;12.30;99.90
10316;DHT22;5203;48.976;8.306;2023-11-19T07:59:08;12.30;99.90
10316;DHT22;5203;48.976;8.306;2023-11-19T08:01:34;12.30;99.90
10316;DHT22;5203;48.976;8.306;2023-11-19T08:04:00;12.30;99.90
10316;DHT22;5203;48.976;8.306;2023-11-19T08:06:27;12.20;99.90
10316;DHT22;5203;48.976;8.306;2023-11-19T08:08:53;12.20;99.90
10316;DHT22;5203;48.976;8.306;2023-11-19T08:11:18;12.20;99.90
10316;DHT22;5203;48.976;8.306;2023-11-19T08:13:47;12.20;99.90
10316;DHT22;5203;48.976;8.306;2023-11-19T08:16:13;12.20;99.90
10316;DHT22;5203;48.976;8.306;2023-11-19T08:18:44;12.20;99.90
10316;DHT22;5203;48.976;8.306;2023-11-19T08:21:12;12.20;99.90
10316;DHT22;5203;48.976;8.306;2023-11-19T08:23:39;12.20;99.90
10316;DHT22;5203;48.976;8.306;2023-11-19T08:26:05;12.30;99.90
10316;DHT22;5203;48.976;8.306;2023-11-19T08:28:34;12.20;99.90
10316;DHT22;5203;48.976;8.306;2023-11-19T08:31:00;12.30;99.90
10316;DHT22;5203;48.976;8.306;2023-11-19T08:33:28;12.30;99.90
10316;DHT22;5203;48.976;8.306;2023-11-19T08:35:58;12.30;99.90
10316;DHT22;5203;48.976;8.306;2023-11-19T08:38:29;12.40;99.90
10316;DHT22;5203;48.976;8.306;2023-11-19T08:40:58;12.40;99.90
10316;DHT22;5203;48.976;8.306;2023-11-19T08:43:27;12.40;99.90
10316;DHT22;5203;48.976;8.306;2023-11-19T08:45:52;12.50;99.90
10316;DHT22;5203;48.976;8.306;2023-11-19T08:48:21;12.40;99.90
10316;DHT22;5203;48.976;8.306;2023-11-19T08:50:47;12.40;99.90
10316;DHT22;5203;48.976;8.306;2023-11-19T08:53:12;12.40;99.90
10316;DHT22;5203;48.976;8.306;2023-11-19T08:55:41;12.30;99.90
10316;DHT22;5203;48.976;8.306;2023-11-19T08:58:17;12.30;99.90
10316;DHT22;5203;48.976;8.306;2023-11-19T09:00:51;12.30;99.90
10316;DHT22;5203;48.976;8.306;2023-11-19T09:03:17;12.20;99.90
10316;DHT22;5203;48.976;8.306;2023-11-19T09:05:51;12.30;99.90
10316;DHT22;5203;48.976;8.306;2023-11-19T09:08:17;12.30;99.90
10316;DHT22;5203;48.976;8.306;2023-11-19T09:10:48;12.30;99.90
10316;DHT22;5203;48.976;8.306;2023-11-19T09:13:14;12.30;99.90
10316;DHT22;5203;48.976;8.306;2023-11-19T09:15:40;12.30;99.90
10316;DHT22;5203;48.976;8.306;2023-11-19T09:18:07;12.30;99.90
10316;DHT22;5203;48.976;8.306;2023-11-19T09:20:36;12.30;99.90
10316;DHT22;5203;48.976;8.306;2023-11-19T09:23:07;12.30;99.90
10316;DHT22;5203;48.976;8.306;2023-11-19T09:25:34;12.40;99.90
10316;DHT22;5203;48.976;8.306;2023-11-19T09:28:07;12.40;99.90
10316;DHT22;5203;48.976;8.306;2023-11-19T09:30:40;12.40;99.90
10316;DHT22;5203;48.976;8.306;2023-11-19T09:33:14;12.50;99.90
10316;DHT22;5203;48.976;8.306;2023-11-19T09:35:40;12.60;99.90
10316;DHT22;5203;48.976;8.306;2023-11-19T09:38:05;12.70;99.90
10316;DHT22;5203;48.976;8.306;2023-11-19T09:40:37;12.80;99.90
10316;DHT22;5203;48.976;8.306;2023-11-19T09:43:04;12.80;99.90
10316;DHT22;5203;48.976;8.306;2023-11-19T09:48:52;12.90;99.90
10316;DHT22;5203;48.976;8.306;2023-11-19T09:51:20;13.10;99.90
10316;DHT22;5203;48.976;8.306;2023-11-19T09:53:47;13.20;99.90
10316;DHT22;5203;48.976;8.306;2023-11-19T09:56:13;13.30;99.90
10316;DHT22;5203;48.976;8.306;2023-11-19T09:58:42;13.40;99.90
10316;DHT22;5203;48.976;8.306;2023-11-19T10:01:08;13.40;99.90
10316;DHT22;5203;48.976;8.306;2023-11-19T10:03:37;13.40;99.90
10316;DHT22;5203;48.976;8.306;2023-11-19T10:06:07;13.50;99.90
10316;DHT22;5203;48.976;8.306;2023-11-19T10:08:38;13.60;99.90
10316;DHT22;5203;48.976;8.306;2023-11-19T10:11:06;13.90;99.90
10316;DHT22;5203;48.976;8.306;2023-11-19T10:13:35;14.10;99.90
10316;DHT22;5203;48.976;8.306;2023-11-19T10:16:10;14.10;99.90
10316;DHT22;5203;48.976;8.306;2023-11-19T10:18:51;14.10;99.90
10316;DHT22;5203;48.976;8.306;2023-11-19T10:21:23;14.10;99.90
10316;DHT22;5203;48.976;8.306;2023-11-19T10:23:55;14.30;99.90
10316;DHT22;5203;48.976;8.306;2023-11-19T10:26:40;14.60;99.90
10316;DHT22;5203;48.976;8.306;2023-11-19T10:29:13;14.80;99.90
10316;DHT22;5203;48.976;8.306;2023-11-19T10:31:43;14.90;99.90
10316;DHT22;5203;48.976;8.306;2023-11-19T10:34:24;14.90;99.90
10316;DHT22;5203;48.976;8.306;2023-11-19T10:37:01;14.90;99.90
10316;DHT22;5203;48.976;8.306;2023-11-19T10:39:52;14.80;99.90
10316;DHT22;5203;48.976;8.306;2023-11-19T10:42:21;14.70;99.90
10316;DHT22;5203;48.976;8.306;2023-11-19T10:44:55;14.60;99.90
10316;DHT22;5203;48.976;8.306;2023-11-19T10:47:25;14.70;99.90
10316;DHT22;5203;48.976;8.306;2023-11-19T10:49:51;14.90;99.90
10316;DHT22;5203;48.976;8.306;2023-11-19T10:52:20;14.80;99.90
10316;DHT22;5203;48.976;8.306;2023-11-19T10:54:50;14.70;99.90
10316;DHT22;5203;48.976;8.306;2023-11-19T10:57:21;14.50;99.90
10316;DHT22;5203;48.976;8.306;2023-11-19T11:00:00;14.40;99.90
10316;DHT22;5203;48.976;8.306;2023-11-19T11:02:27;14.30;99.90
10316;DHT22;5203;48.976;8.306;2023-11-19T11:04:54;14.40;99.90
10316;DHT22;5203;48.976;8.306;2023-11-19T11:07:25;14.30;99.90
10316;DHT22;5203;48.976;8.306;2023-11-19T11:09:52;14.30;99.90
10316;DHT22;5203;48.976;8.306;2023-11-19T11:12:25;14.30;99.90
10316;DHT22;5203;48.976;8.306;2023-11-19T11:15:00;14.40;99.90
10316;DHT22;5203;48.976;8.306;2023-11-19T11:17:28;14.60;99.90
10316;DHT22;5203;48.976;8.306;2023-11-19T11:20:11;14.70;99.90
10316;DHT22;5203;48.976;8.306;2023-11-19T11:22:50;15.10;99.90
10316;DHT22;5203;48.976;8.306;2023-11-19T11:28:31;15.80;99.90
10316;DHT22;5203;48.976;8.306;2023-11-19T11:37:02;15.80;99.90
10316;DHT22;5203;48.976;8.306;2023-11-19T11:39:30;15.90;99.90
10316;DHT22;5203;48.976;8.306;2023-11-19T11:42:34;16.20;99.90
10316;DHT22;5203;48.976;8.306;2023-11-19T11:50:20;16.50;99.00
10316;DHT22;5203;48.976;8.306;2023-11-19T11:55:26;16.00;99.90
10316;DHT22;5203;48.976;8.306;2023-11-19T11:57:55;15.60;99.90
10316;DHT22;5203;48.976;8.306;2023-11-19T12:00:29;15.50;99.90
10316;DHT22;5203;48.976;8.306;2023-11-19T12:02:57;15.60;99.90
10316;DHT22;5203;48.976;8.306;2023-11-19T12:05:29;15.80;99.90
10316;DHT22;5203;48.976;8.306;2023-11-19T12:08:04;16.40;99.90
10316;DHT22;5203;48.976;8.306;2023-11-19T12:10:46;16.90;95.40
10316;DHT22;5203;48.976;8.306;2023-11-19T12:13:18;17.50;94.50
10316;DHT22;5203;48.976;8.306;2023-11-19T12:18:27;16.80;93.40
10316;DHT22;5203;48.976;8.306;2023-11-19T12:20:57;16.30;96.40
10316;DHT22;5203;48.976;8.306;2023-11-19T12:23:28;16.00;99.90
10316;DHT22;5203;48.976;8.306;2023-11-19T12:26:05;16.20;97.50
10316;DHT22;5203;48.976;8.306;2023-11-19T12:29:03;16.00;98.60
10316;DHT22;5203;48.976;8.306;2023-11-19T12:31:43;15.80;97.30
10316;DHT22;5203;48.976;8.306;2023-11-19T12:34:09;15.60;98.00
10316;DHT22;5203;48.976;8.306;2023-11-19T12:36:38;15.50;94.40
10316;DHT22;5203;48.976;8.306;2023-11-19T12:39:10;15.50;92.00
10316;DHT22;5203;48.976;8.306;2023-11-19T12:41:51;15.50;88.60
10316;DHT22;5203;48.976;8.306;2023-11-19T12:44:17;15.60;90.00
10316;DHT22;5203;48.976;8.306;2023-11-19T12:46:43;15.80;90.60
10316;DHT22;5203;48.976;8.306;2023-11-19T12:49:15;15.70;87.30
10316;DHT22;5203;48.976;8.306;2023-11-19T12:51:40;15.70;87.30
10316;DHT22;5203;48.976;8.306;2023-11-19T12:54:13;15.70;87.60
10316;DHT22;5203;48.976;8.306;2023-11-19T12:56:54;16.10;85.80
10316;DHT22;5203;48.976;8.306;2023-11-19T12:59:20;16.30;84.80
10316;DHT22;5203;48.976;8.306;2023-11-19T13:02:01;16.10;83.00
10316;DHT22;5203;48.976;8.306;2023-11-19T13:07:45;16.50;81.80
10316;DHT22;5203;48.976;8.306;2023-11-19T13:10:11;16.70;77.30
10316;DHT22;5203;48.976;8.306;2023-11-19T13:12:37;17.10;74.90
10316;DHT22;5203;48.976;8.306;2023-11-19T13:15:03;17.40;71.50
10316;DHT22;5203;48.976;8.306;2023-11-19T13:17:29;17.30;70.10
10316;DHT22;5203;48.976;8.306;2023-11-19T13:19:56;17.20;71.20
10316;DHT22;5203;48.976;8.306;2023-11-19T13:22:22;17.10;71.80
10316;DHT22;5203;48.976;8.306;2023-11-19T13:24:48;17.10;72.30
10316;DHT22;5203;48.976;8.306;2023-11-19T13:27:14;17.00;72.80
10316;DHT22;5203;48.976;8.306;2023-11-19T13:29:40;16.70;75.20
10316;DHT22;5203;48.976;8.306;2023-11-19T13:32:06;16.50;73.80
10316;DHT22;5203;48.976;8.306;2023-11-19T13:34:31;16.30;73.50
10316;DHT22;5203;48.976;8.306;2023-11-19T13:36:57;16.30;76.20
10316;DHT22;5203;48.976;8.306;2023-11-19T13:39:23;16.30;74.20
10316;DHT22;5203;48.976;8.306;2023-11-19T13:41:52;16.50;73.20
10316;DHT22;5203;48.976;8.306;2023-11-19T13:44:20;16.40;72.80
10316;DHT22;5203;48.976;8.306;2023-11-19T13:46:54;16.40;73.80
10316;DHT22;5203;48.976;8.306;2023-11-19T13:49:19;16.00;76.50
10316;DHT22;5203;48.976;8.306;2023-11-19T13:54:40;15.50;78.30
10316;DHT22;5203;48.976;8.306;2023-11-19T13:57:08;15.30;78.80
10316;DHT22;5203;48.976;8.306;2023-11-19T13:59:40;15.30;79.40
10316;DHT22;5203;48.976;8.306;2023-11-19T14:02:16;15.30;78.50
10316;DHT22;5203;48.976;8.306;2023-11-19T14:04:45;15.20;80.60
10316;DHT22;5203;48.976;8.306;2023-11-19T14:07:32;15.10;81.40
10316;DHT22;5203;48.976;8.306;2023-11-19T14:09:58;15.10;80.80
10316;DHT22;5203;48.976;8.306;2023-11-19T14:12:55;15.00;81.20
10316;DHT22;5203;48.976;8.306;2023-11-19T14:15:21;15.00;83.10
10316;DHT22;5203;48.976;8.306;2023-11-19T14:17:47;15.00;84.10
10316;DHT22;5203;48.976;8.306;2023-11-19T14:20:12;15.00;81.80
10316;DHT22;5203;48.976;8.306;2023-11-19T14:22:50;15.00;80.90
10316;DHT22;5203;48.976;8.306;2023-11-19T14:25:23;15.10;81.90
10316;DHT22;5203;48.976;8.306;2023-11-19T14:27:56;15.20;82.10
10316;DHT22;5203;48.976;8.306;2023-11-19T14:30:28;15.30;83.30
10316;DHT22;5203;48.976;8.306;2023-11-19T14:32:58;15.30;82.30
10316;DHT22;5203;48.976;8.306;2023-11-19T14:35:27;15.40;83.00
10316;DHT22;5203;48.976;8.306;2023-11-19T14:38:09;15.20;83.80
10316;DHT22;5203;48.976;8.306;2023-11-19T14:40:44;15.20;84.80
10316;DHT22;5203;48.976;8.306;2023-11-19T14:43:30;15.10;84.30
10316;DHT22;5203;48.976;8.306;2023-11-19T14:46:04;15.00;84.00
10316;DHT22;5203;48.976;8.306;2023-11-19T14:48:42;14.90;82.60
10316;DHT22;5203;48.976;8.306;2023-11-19T14:51:08;14.90;82.40
10316;DHT22;5203;48.976;8.306;2023-11-19T14:53:34;14.80;82.60
10316;DHT22;5203;48.976;8.306;2023-11-19T14:56:01;14.80;83.40
10316;DHT22;5203;48.976;8.306;2023-11-19T14:58:30;14.80;82.10
10316;DHT22;5203;48.976;8.306;2023-11-19T15:00:58;14.80;81.00
10316;DHT22;5203;48.976;8.306;2023-11-19T15:03:27;14.80;81.80
10316;DHT22;5203;48.976;8.306;2023-11-19T15:05:53;14.70;82.10
10316;DHT22;5203;48.976;8.306;2023-11-19T15:08:28;14.80;81.80
10316;DHT22;5203;48.976;8.306;2023-11-19T15:10:55;14.80;81.80
10316;DHT22;5203;48.976;8.306;2023-11-19T15:13:23;14.80;81.70
10316;DHT22;5203;48.976;8.306;2023-11-19T15:15:52;14.80;81.40
10316;DHT22;5203;48.976;8.306;2023-11-19T15:18:18;14.80;82.20
10316;DHT22;5203;48.976;8.306;2023-11-19T15:20:47;14.70;81.40
10316;DHT22;5203;48.976;8.306;2023-11-19T15:23:19;14.70;81.50
10316;DHT22;5203;48.976;8.306;2023-11-19T15:25:45;14.60;82.70
10316;DHT22;5203;48.976;8.306;2023-11-19T15:28:14;14.50;83.30
10316;DHT22;5203;48.976;8.306;2023-11-19T15:30:47;14.40;84.10
10316;DHT22;5203;48.976;8.306;2023-11-19T15:33:12;14.40;84.30
10316;DHT22;5203;48.976;8.306;2023-11-19T15:35:38;14.30;84.50
10316;DHT22;5203;48.976;8.306;2023-11-19T15:38:06;14.20;85.50
10316;DHT22;5203;48.976;8.306;2023-11-19T15:40:36;14.20;86.10
10316;DHT22;5203;48.976;8.306;2023-11-19T15:43:04;14.00;86.10
10316;DHT22;5203;48.976;8.306;2023-11-19T15:45:29;14.00;87.00
10316;DHT22;5203;48.976;8.306;2023-11-19T15:48:01;13.90;87.20
10316;DHT22;5203;48.976;8.306;2023-11-19T15:50:27;13.90;87.80
10316;DHT22;5203;48.976;8.306;2023-11-19T15:52:54;13.90;87.00
10316;DHT22;5203;48.976;8.306;2023-11-19T15:55:23;14.00;87.20
10316;DHT22;5203;48.976;8.306;2023-11-19T15:57:49;14.00;87.40
10316;DHT22;5203;48.976;8.306;2023-11-19T16:00:15;13.90;86.80
10316;DHT22;5203;48.976;8.306;2023-11-19T16:02:51;13.90;86.70
10316;DHT22;5203;48.976;8.306;2023-11-19T16:05:20;13.90;87.60
10316;DHT22;5203;48.976;8.306;2023-11-19T16:07:47;13.90;87.30
10316;DHT22;5203;48.976;8.306;2023-11-19T16:10:15;13.90;87.20
10316;DHT22;5203;48.976;8.306;2023-11-19T16:12:57;13.90;87.20
10316;DHT22;5203;48.976;8.306;2023-11-19T16:15:22;13.80;87.60
10316;DHT22;5203;48.976;8.306;2023-11-19T16:17:48;13.90;87.40
10316;DHT22;5203;48.976;8.306;2023-11-19T16:23:14;13.90;87.00
10316;DHT22;5203;48.976;8.306;2023-11-19T16:25:47;13.80;88.20
10316;DHT22;5203;48.976;8.306;2023-11-19T16:28:30;13.70;88.10
10316;DHT22;5203;48.976;8.306;2023-11-19T16:31:06;13.80;87.80
10316;DHT22;5203;48.976;8.306;2023-11-19T16:33:38;13.70;88.80